KVTN/VTN METAR and TAF weather

Enter ICAO airport designator
Station Type Date Time Source
KVTN METAR 2021/01/16 01:52 UTC NOAA

KVTN 160152Z AUTO 25005KT 10SM M06/M10 A3002 RMK AO2 SLP201 T10561100


Station Type Date Time Source
KVTN Decoded METAR 2021/01/16 01:52 UTC NOAA

MILLER FIELD - VALENTINE, NE, NE, United States (KVTN) 42-52N 100-33W 788M
Jan 15, 2021 - 08:52 PM EST / 2021.01.16 0152 UTC
Wind: from the WSW (250 degrees) at 6 MPH (5 KT):0
Visibility: 10 mile(s):0
Temperature: 21.9 F (-5.6 C)
Windchill: 14 F (-10 C):1
Dew Point: 14.0 F (-10.0 C)
Relative Humidity: 71%
Pressure (altimeter): 30.02 in. Hg (1016 hPa)
ob: KVTN 160152Z AUTO 25005KT 10SM M06/M10 A3002 RMK AO2 SLP201 T10561100
cycle: 2

Station Type Date Time Source
KVTN TAF 2021/01/16 00:18 UTC NOAA

TAF KVTN 160015Z 1600/1624 30005KT P6SM SCT120 SCT250
FM161400 33010KT P6SM BKN120
FM161700 32019G29KT P6SM FEW120 SCT250
FM162300 32012KT P6SM SCT250

Example: see airport list